createdAt,value
2022-12-01T00:01:21.059Z,2.33
2022-12-01T00:03:48.253Z,2.29
2022-12-01T00:06:18.010Z,2.25
2022-12-01T00:09:06.156Z,2.27
2022-12-01T00:11:34.767Z,2.21
2022-12-01T00:14:03.920Z,2.20
2022-12-01T00:16:31.780Z,2.16
2022-12-01T00:18:58.914Z,2.15
2022-12-01T00:21:26.832Z,2.14
2022-12-01T00:23:55.962Z,2.18
2022-12-01T00:26:23.819Z,2.22
2022-12-01T00:28:55.668Z,2.17
2022-12-01T00:31:23.285Z,2.14
2022-12-01T00:33:50.749Z,2.02
2022-12-01T00:36:18.013Z,2.02
2022-12-01T00:38:45.223Z,1.99
2022-12-01T00:41:12.076Z,1.92
2022-12-01T00:43:39.893Z,1.84
2022-12-01T00:46:06.949Z,1.70
2022-12-01T00:48:34.025Z,1.61
2022-12-01T00:51:00.934Z,1.59
2022-12-01T00:53:27.702Z,1.51
2022-12-01T00:55:54.724Z,1.47
2022-12-01T00:58:22.283Z,1.39
2022-12-01T01:00:49.817Z,1.37
2022-12-01T01:03:16.886Z,1.33
2022-12-01T01:05:43.952Z,1.24
2022-12-01T01:08:13.777Z,1.19
2022-12-01T01:10:45.765Z,1.12
2022-12-01T01:13:14.159Z,1.06
2022-12-01T01:15:40.995Z,1.03
2022-12-01T01:18:09.716Z,0.98
2022-12-01T01:20:36.522Z,0.93
2022-12-01T01:23:03.444Z,0.89
2022-12-01T01:25:32.332Z,0.80
2022-12-01T01:27:59.247Z,0.79
2022-12-01T01:30:26.194Z,0.78
2022-12-01T01:32:53.024Z,0.70
2022-12-01T01:35:19.971Z,0.69
2022-12-01T01:37:46.749Z,0.67
2022-12-01T01:40:13.672Z,0.66
2022-12-01T01:42:40.395Z,0.58
2022-12-01T01:45:20.773Z,0.59
2022-12-01T01:47:50.252Z,0.61
2022-12-01T01:50:20.503Z,0.50
2022-12-01T01:52:52.061Z,0.53
2022-12-01T01:55:19.596Z,0.43
2022-12-01T01:57:46.896Z,0.40
2022-12-01T02:00:17.197Z,0.41
2022-12-01T02:02:46.753Z,0.35
2022-12-01T02:05:24.538Z,0.33
2022-12-01T02:07:55.340Z,0.31
2022-12-01T02:10:28.478Z,0.29
2022-12-01T02:13:19.954Z,0.28
2022-12-01T02:16:15.797Z,0.25
2022-12-01T02:19:14.883Z,0.22
2022-12-01T02:22:00.116Z,0.15
2022-12-01T02:25:00.199Z,0.13
2022-12-01T02:27:37.857Z,0.10
2022-12-01T02:30:17.967Z,0.10
2022-12-01T02:33:06.278Z,0.09
2022-12-01T02:35:57.799Z,0.07
2022-12-01T02:38:39.587Z,-0.02
2022-12-01T02:41:30.290Z,0.00
2022-12-01T02:44:08.103Z,-0.12
2022-12-01T02:46:41.813Z,-0.06
2022-12-01T02:49:15.655Z,-0.08
2022-12-01T02:51:44.898Z,-0.14
2022-12-01T02:54:14.948Z,-0.16
2022-12-01T02:56:45.078Z,-0.20
2022-12-01T02:59:13.625Z,-0.21
2022-12-01T03:01:50.855Z,-0.26
2022-12-01T03:04:36.110Z,-0.27
2022-12-01T03:07:19.736Z,-0.33
2022-12-01T03:09:51.249Z,-0.31
2022-12-01T03:12:55.099Z,-0.30
2022-12-01T03:15:35.922Z,-0.31
2022-12-01T03:18:19.883Z,-0.35
2022-12-01T03:21:05.733Z,-0.40
2022-12-01T03:23:37.649Z,-0.41
2022-12-01T03:26:07.641Z,-0.43
2022-12-01T03:28:40.186Z,-0.49
2022-12-01T03:31:12.122Z,-0.47
2022-12-01T03:33:49.748Z,-0.53
2022-12-01T03:36:29.364Z,-0.52
2022-12-01T03:39:01.342Z,-0.52
2022-12-01T03:41:37.493Z,-0.63
2022-12-01T03:44:12.223Z,-0.67
2022-12-01T03:47:00.529Z,-0.72
2022-12-01T03:49:28.314Z,-0.74
2022-12-01T03:52:19.746Z,-0.71
2022-12-01T03:54:55.777Z,-0.71
2022-12-01T03:57:38.369Z,-0.75
2022-12-01T04:00:08.522Z,-0.92
2022-12-01T04:02:37.453Z,-0.81
2022-12-01T04:05:06.235Z,-0.85
2022-12-01T04:07:33.070Z,-0.88
2022-12-01T04:09:59.926Z,-0.77
2022-12-01T04:12:29.647Z,-0.81
2022-12-01T04:15:01.270Z,-0.95
2022-12-01T04:17:28.837Z,-0.95
2022-12-01T04:19:55.877Z,-0.95
2022-12-01T04:22:23.459Z,-0.94
2022-12-01T04:24:52.166Z,-1.01
2022-12-01T04:27:20.036Z,-0.98
2022-12-01T04:29:47.261Z,-1.00
2022-12-01T04:32:14.536Z,-1.06
2022-12-01T04:34:41.333Z,-1.08
2022-12-01T04:37:10.039Z,-1.15
2022-12-01T04:39:37.068Z,-1.18
2022-12-01T04:42:04.649Z,-1.12
2022-12-01T04:44:34.765Z,-1.18
2022-12-01T04:47:03.514Z,-1.24
2022-12-01T04:49:30.741Z,-1.23
2022-12-01T04:51:57.586Z,-1.23
2022-12-01T04:54:24.773Z,-1.22
2022-12-01T04:56:51.767Z,-1.18
2022-12-01T04:59:18.677Z,-1.19
2022-12-01T05:01:48.010Z,-1.18
2022-12-01T05:04:15.585Z,-1.19
2022-12-01T05:06:42.905Z,-1.28
2022-12-01T05:09:16.905Z,-1.33
2022-12-01T05:11:44.498Z,-1.25
2022-12-01T05:14:11.264Z,-1.20
2022-12-01T05:16:38.447Z,-1.26
2022-12-01T05:19:25.240Z,-1.41
2022-12-01T05:21:52.229Z,-1.34
2022-12-01T05:24:20.827Z,-1.39
2022-12-01T05:26:48.111Z,-1.53
2022-12-01T05:29:15.308Z,-1.46
2022-12-01T05:31:42.167Z,-1.50
2022-12-01T05:34:09.459Z,-1.48
2022-12-01T05:36:36.562Z,-1.46
2022-12-01T05:39:04.516Z,-1.41
2022-12-01T05:41:31.288Z,-1.36
2022-12-01T05:43:58.235Z,-1.36
2022-12-01T05:46:25.116Z,-1.40
2022-12-01T05:48:52.318Z,-1.48
2022-12-01T05:51:19.146Z,-1.47
2022-12-01T05:53:46.064Z,-1.51
2022-12-01T05:56:12.910Z,-1.51
2022-12-01T05:58:39.812Z,-1.47
2022-12-01T06:01:06.966Z,-1.48
2022-12-01T06:03:33.790Z,-1.51
2022-12-01T06:06:00.971Z,-1.53
2022-12-01T06:08:27.823Z,-1.62
2022-12-01T06:10:54.832Z,-1.49
2022-12-01T06:13:21.779Z,-1.50
2022-12-01T06:16:03.869Z,-1.53
2022-12-01T06:18:33.453Z,-1.53
2022-12-01T06:21:00.942Z,-1.52
2022-12-01T06:23:30.609Z,-1.59
2022-12-01T06:25:58.772Z,-1.60
2022-12-01T06:28:25.575Z,-1.59
2022-12-01T06:30:54.515Z,-1.55
2022-12-01T06:33:24.773Z,-1.53
2022-12-01T06:36:02.456Z,-1.48
2022-12-01T06:38:34.085Z,-1.43
2022-12-01T06:41:01.231Z,-1.40
2022-12-01T06:43:28.648Z,-1.38
2022-12-01T06:46:01.298Z,-1.33
2022-12-01T06:48:29.664Z,-1.30
2022-12-01T06:51:00.561Z,-1.28
2022-12-01T06:53:28.650Z,-1.29
2022-12-01T06:56:01.046Z,-1.33
2022-12-01T06:58:28.437Z,-1.20
2022-12-01T07:00:55.709Z,-1.16
2022-12-01T07:03:22.610Z,-1.07
2022-12-01T07:06:00.446Z,-1.04
2022-12-01T07:08:28.828Z,-1.02
2022-12-01T07:11:04.491Z,-0.92
2022-12-01T07:13:33.819Z,-0.89
2022-12-01T07:16:04.802Z,-0.83
2022-12-01T07:18:32.360Z,-0.74
2022-12-01T07:21:01.489Z,-0.64
2022-12-01T07:23:28.510Z,-0.43
2022-12-01T07:26:06.778Z,-0.19
2022-12-01T07:28:36.443Z,0.11
2022-12-01T07:31:11.382Z,0.40
2022-12-01T07:33:38.559Z,0.65
2022-12-01T07:36:06.379Z,0.80
2022-12-01T07:38:34.771Z,0.92
2022-12-01T07:41:10.185Z,1.14
2022-12-01T07:43:38.224Z,1.30
2022-12-01T07:46:05.378Z,1.59
2022-12-01T07:48:32.296Z,1.75
2022-12-01T07:50:59.060Z,1.86
2022-12-01T07:53:25.783Z,2.06
2022-12-01T07:55:55.700Z,2.22
2022-12-01T07:58:22.493Z,2.31
2022-12-01T08:00:49.327Z,2.22
2022-12-01T08:03:16.352Z,2.25
2022-12-01T08:05:43.150Z,2.37
2022-12-01T08:08:10.143Z,2.87
2022-12-01T08:10:37.592Z,3.25
2022-12-01T08:13:04.517Z,3.56
2022-12-01T08:15:31.345Z,3.88
2022-12-01T08:18:00.979Z,4.18
2022-12-01T08:20:27.928Z,4.57
2022-12-01T08:22:54.742Z,4.93
2022-12-01T08:25:21.538Z,5.30
2022-12-01T08:27:49.238Z,5.70
2022-12-01T08:30:16.122Z,5.96
2022-12-01T08:32:42.927Z,5.84
2022-12-01T08:35:10.281Z,6.08
2022-12-01T08:37:37.042Z,6.14
2022-12-01T08:40:04.425Z,6.16
2022-12-01T08:42:31.259Z,6.28
2022-12-01T08:44:58.015Z,6.66
2022-12-01T08:47:24.910Z,6.69
2022-12-01T08:49:51.755Z,6.98
2022-12-01T08:52:18.608Z,7.18
2022-12-01T08:54:45.425Z,7.27
2022-12-01T08:57:12.330Z,7.31
2022-12-01T08:59:39.194Z,7.54
2022-12-01T09:02:07.343Z,7.75
2022-12-01T09:04:34.111Z,7.88
2022-12-01T09:07:00.912Z,7.69
2022-12-01T09:09:28.747Z,8.02
2022-12-01T09:11:56.043Z,8.19
2022-12-01T09:14:23.768Z,8.21
2022-12-01T09:16:51.496Z,8.50
2022-12-01T09:19:24.203Z,8.12
2022-12-01T09:21:51.829Z,8.18
2022-12-01T09:24:18.564Z,8.18
2022-12-01T09:26:45.360Z,8.28
2022-12-01T09:29:14.310Z,8.50
2022-12-01T09:31:42.718Z,8.81
2022-12-01T09:34:18.544Z,9.43
2022-12-01T09:36:47.153Z,9.84
2022-12-01T09:39:19.231Z,10.00
2022-12-01T09:41:58.482Z,10.13
2022-12-01T09:44:31.582Z,10.22
2022-12-01T09:47:22.471Z,10.01
2022-12-01T09:50:11.184Z,9.56
2022-12-01T09:52:46.476Z,9.97
2022-12-01T09:55:16.131Z,10.46
2022-12-01T09:57:46.773Z,9.53
2022-12-01T10:00:25.475Z,9.54
2022-12-01T10:03:10.449Z,9.77
2022-12-01T10:06:26.250Z,10.12
2022-12-01T10:09:03.140Z,10.55
2022-12-01T10:11:41.009Z,10.09
2022-12-01T10:14:20.040Z,10.26
2022-12-01T10:17:09.532Z,10.25
2022-12-01T10:19:42.931Z,10.64
2022-12-01T10:22:42.829Z,10.28
2022-12-01T10:25:20.829Z,10.24
2022-12-01T10:28:29.083Z,10.29
2022-12-01T10:31:14.631Z,10.14
2022-12-01T10:34:03.062Z,9.75
2022-12-01T10:36:32.561Z,9.64
2022-12-01T10:39:00.179Z,9.61
2022-12-01T10:41:29.969Z,9.43
2022-12-01T10:44:02.493Z,9.40
2022-12-01T10:46:43.421Z,9.33
2022-12-01T10:49:15.995Z,9.54
2022-12-01T10:51:53.416Z,9.52
2022-12-01T10:54:22.106Z,9.44
2022-12-01T10:56:51.006Z,9.79
2022-12-01T10:59:23.920Z,9.79
2022-12-01T11:01:50.891Z,9.69
2022-12-01T11:04:45.613Z,9.99
2022-12-01T11:07:37.045Z,10.46
2022-12-01T11:10:32.937Z,11.23
2022-12-01T11:13:06.367Z,10.83
2022-12-01T11:15:39.824Z,11.60
2022-12-01T11:18:34.951Z,11.55
2022-12-01T11:21:13.038Z,11.85
2022-12-01T11:23:48.274Z,12.78
2022-12-01T11:26:24.976Z,13.41
2022-12-01T11:28:53.245Z,13.70
2022-12-01T11:31:21.913Z,13.24
2022-12-01T11:33:56.745Z,13.15
2022-12-01T11:36:30.086Z,13.62
2022-12-01T11:39:00.678Z,14.25
2022-12-01T11:41:36.490Z,14.33
2022-12-01T11:44:17.178Z,14.52
2022-12-01T11:47:07.740Z,14.38
2022-12-01T11:50:02.291Z,13.94
2022-12-01T11:52:36.435Z,13.90
2022-12-01T11:55:25.114Z,14.60
2022-12-01T11:57:54.714Z,15.58
2022-12-01T12:00:24.937Z,15.27
2022-12-01T12:03:09.782Z,14.54
2022-12-01T12:05:49.904Z,13.74
2022-12-01T12:08:47.996Z,13.35
2022-12-01T12:11:19.611Z,12.56
2022-12-01T12:14:04.699Z,12.84
2022-12-01T12:16:52.901Z,13.11
2022-12-01T12:20:07.282Z,12.97
2022-12-01T12:22:43.600Z,12.39
2022-12-01T12:25:25.588Z,12.58
2022-12-01T12:28:07.983Z,12.86
2022-12-01T12:30:49.271Z,13.20
2022-12-01T12:33:37.465Z,12.82
2022-12-01T12:36:19.281Z,11.76
2022-12-01T12:38:54.839Z,11.44
2022-12-01T12:41:45.472Z,11.16
2022-12-01T12:44:37.231Z,11.34
2022-12-01T12:47:30.585Z,11.11
2022-12-01T12:50:14.775Z,10.71
2022-12-01T12:52:47.043Z,11.54
2022-12-01T12:55:24.683Z,11.63
2022-12-01T12:58:13.031Z,11.77
2022-12-01T13:00:54.174Z,11.75
2022-12-01T13:03:42.633Z,12.54
2022-12-01T13:06:14.671Z,13.38
2022-12-01T13:08:45.487Z,12.68
2022-12-01T13:11:44.199Z,13.80
2022-12-01T13:14:23.005Z,14.65
2022-12-01T13:16:52.568Z,14.63
2022-12-01T13:19:28.786Z,14.69
2022-12-01T13:21:57.049Z,14.67
2022-12-01T13:24:27.642Z,14.53
2022-12-01T13:27:02.001Z,14.25
2022-12-01T13:29:38.383Z,13.98
2022-12-01T13:32:24.329Z,14.18
2022-12-01T13:34:51.278Z,14.38
2022-12-01T13:37:27.662Z,14.15
2022-12-01T13:39:55.636Z,13.21
2022-12-01T13:42:27.036Z,12.80
2022-12-01T13:44:57.389Z,13.15
2022-12-01T13:47:55.818Z,13.51
2022-12-01T13:50:43.051Z,13.26
2022-12-01T13:53:14.616Z,13.40
2022-12-01T13:55:59.784Z,13.17
2022-12-01T13:58:46.101Z,12.81
2022-12-01T14:01:22.887Z,12.50
2022-12-01T14:04:02.622Z,12.33
2022-12-01T14:07:09.716Z,12.31
2022-12-01T14:09:39.753Z,12.00
2022-12-01T14:12:30.290Z,11.54
2022-12-01T14:15:01.647Z,11.00
2022-12-01T14:17:37.804Z,10.63
2022-12-01T14:20:20.748Z,10.31
2022-12-01T14:23:03.135Z,9.99
2022-12-01T14:25:31.720Z,9.71
2022-12-01T14:28:03.246Z,9.49
2022-12-01T14:30:39.084Z,9.25
2022-12-01T14:33:45.039Z,8.94
2022-12-01T14:36:23.958Z,8.79
2022-12-01T14:38:59.669Z,8.61
2022-12-01T14:41:30.349Z,8.43
2022-12-01T14:44:04.051Z,8.31
2022-12-01T14:47:09.876Z,8.13
2022-12-01T14:50:01.184Z,7.92
2022-12-01T14:52:27.871Z,7.79
2022-12-01T14:55:05.064Z,7.65
2022-12-01T14:57:41.614Z,7.56
2022-12-01T15:00:16.605Z,7.42
2022-12-01T15:03:09.002Z,7.26
2022-12-01T15:05:43.454Z,7.15
2022-12-01T15:08:45.754Z,7.02
2022-12-01T15:11:26.632Z,6.93
2022-12-01T15:13:57.626Z,6.78
2022-12-01T15:16:30.586Z,6.70
2022-12-01T15:18:58.070Z,6.63
2022-12-01T15:21:32.233Z,6.54
2022-12-01T15:24:20.128Z,6.42
2022-12-01T15:26:49.397Z,6.32
2022-12-01T15:29:21.385Z,6.21
2022-12-01T15:31:52.358Z,6.09
2022-12-01T15:34:29.784Z,5.98
2022-12-01T15:36:58.255Z,5.91
2022-12-01T15:39:37.308Z,5.76
2022-12-01T15:42:05.105Z,5.61
2022-12-01T15:44:36.754Z,5.64
2022-12-01T15:47:40.854Z,5.58
2022-12-01T15:50:31.272Z,5.63
2022-12-01T15:53:00.979Z,5.62
2022-12-01T15:55:36.230Z,5.54
2022-12-01T15:58:07.888Z,5.48
2022-12-01T16:00:35.249Z,5.41
2022-12-01T16:03:02.509Z,5.34
2022-12-01T16:05:35.593Z,5.25
2022-12-01T16:08:23.677Z,5.15
2022-12-01T16:11:12.266Z,5.19
2022-12-01T16:13:44.290Z,5.19
2022-12-01T16:16:36.294Z,5.07
2022-12-01T16:19:05.967Z,4.99
2022-12-01T16:21:48.159Z,4.89
2022-12-01T16:24:20.039Z,4.87
2022-12-01T16:26:57.407Z,4.91
2022-12-01T16:29:26.783Z,4.83
2022-12-01T16:32:19.344Z,4.67
2022-12-01T16:34:46.554Z,4.65
2022-12-01T16:37:23.944Z,4.59
2022-12-01T16:39:51.170Z,4.48
2022-12-01T16:42:22.832Z,4.53
2022-12-01T16:44:51.612Z,4.45
2022-12-01T16:47:20.736Z,4.35
2022-12-01T16:49:47.749Z,4.22
2022-12-01T16:52:43.034Z,4.22
2022-12-01T16:55:04.313Z,4.10
2022-12-01T16:57:31.171Z,3.95
2022-12-01T16:59:58.112Z,3.82
2022-12-01T17:02:25.336Z,3.78
2022-12-01T17:04:52.537Z,3.77
2022-12-01T17:07:19.917Z,3.64
2022-12-01T17:09:46.819Z,3.66
2022-12-01T17:12:13.520Z,3.62
2022-12-01T17:14:40.295Z,3.45
2022-12-01T17:17:07.444Z,3.40
2022-12-01T17:19:35.595Z,3.29
2022-12-01T17:22:02.415Z,3.37
2022-12-01T17:24:29.139Z,3.38
2022-12-01T17:26:56.254Z,3.25
2022-12-01T17:29:23.425Z,3.19
2022-12-01T17:31:50.680Z,3.22
2022-12-01T17:34:18.136Z,3.19
2022-12-01T17:36:45.625Z,3.17
2022-12-01T17:39:12.651Z,3.17
2022-12-01T17:41:41.004Z,3.11
2022-12-01T17:44:08.072Z,3.15
2022-12-01T17:46:35.345Z,3.10
2022-12-01T17:49:08.908Z,3.01
2022-12-01T17:51:36.810Z,2.98
2022-12-01T17:54:04.096Z,2.97
2022-12-01T17:56:31.088Z,2.88
2022-12-01T17:58:57.864Z,2.77
2022-12-01T18:01:29.947Z,2.77
2022-12-01T18:03:57.985Z,2.69
2022-12-01T18:06:26.068Z,2.61
2022-12-01T18:08:53.666Z,2.62
2022-12-01T18:11:21.094Z,2.61
2022-12-01T18:13:50.545Z,2.54
2022-12-01T18:16:20.574Z,2.54
2022-12-01T18:18:48.165Z,2.47
2022-12-01T18:21:17.853Z,2.30
